Airfield :
LOGIN :

Register | Disclaimer

   EN    FR    IT 

 










Legend :    VFR   Marginal VFR   IFR   Intensive IFR   Very Intensive IFR
Visi :
Ceiling :
>= 8 km
>= 3000ft
5 to 8 km
1000 to 3000 ft
1500m to 5 km
500 to 1000 ft
800 to 1500m
200 to 500 ft
< 800m
< 200 ft
Symbols :   Thunderstorms  Fog  Heavy snow  Heavy precipitations  Wind > 20 kt
SIGMETs :     Misc.  Thunderstorms  Icing  Turbulence  Mountain Waves  Volcanic Ashes







- Airport Elevation : 117 ft
- IATA code : NWI
- Download approach charts


EGSH - Norwich

CURRENT METAR :
  • 201850Z 31004KT 280V350 9999 BKN006 02/02 Q1003 NOSIG

EXPIRED METARs :
  • 201820Z 30004KT 9999 FEW035 02/01 Q1002 NOSIG
  • 201750Z VRB03KT 9999 FEW010 02/01 Q1002 NOSIG
  • 201720Z 32003KT 9999 FEW018 SCT029 02/02 Q1001 NOSIG
  • 201650Z VRB03KT 9999 SCT006 SCT026 03/02 Q1001 TEMPO BKN006
  • 201620Z VRB03KT 9000 SCT006 BKN010 03/02 Q1000 TEMPO 4000 RADZ BKN008

TAF TAF EGSH
Valid from the 20 at 18:00 until the 21 at 03:00 UTC


201703Z 2018/2103 VRB04KT 9999 FEW030
TEMPO 2018/2020 8000 -RA BKN014
PROB40
TEMPO 2018/2020 4000 RADZ BKN008
PROB30 2020/2103 0600 FG BKN001
ATIS : +44 1603 420 640
No reported NOTAMs for that airfield.
1 SIGMET reported for the London FIR (EGTT) :
 
Severe turbulence
EGTT SIGMET 06 VALID 201500/201900 EGRR
EGTT LONDON FIR SEV TURB FCST S OF LINE N5000 W00200 - N5100 W00800 SFC/FL060 MOV S 15KT WKN=



MET'MAP, your aeronautical weather chart ! - Copyright ORBIFLY December 2007 - Disclaimer

ORBIFLY MET'MAP TEAM :

Programming & Development : Alexandra Zaïnal
Concept & Development : Baudouin d'Aumeries
Co-Development & Prog : Marc-Olivier Méhu
Technical & hardware support : Manuel Goepfert

Contact : metmap@orbifly.com




SOURCES & CREDITS :

   NOAA